sensor_id;sensor_type;location;lat;lon;timestamp;P1;durP1;ratioP1;P2;durP2;ratioP2
10315;SDS011;5203;48.976;8.306;2023-03-23T00:01:53;2.30;;;2.20;;
10315;SDS011;5203;48.976;8.306;2023-03-23T00:04:19;2.97;;;2.47;;
10315;SDS011;5203;48.976;8.306;2023-03-23T00:06:45;2.20;;;2.10;;
10315;SDS011;5203;48.976;8.306;2023-03-23T00:09:12;2.53;;;2.33;;
10315;SDS011;5203;48.976;8.306;2023-03-23T00:11:40;2.53;;;2.33;;
10315;SDS011;5203;48.976;8.306;2023-03-23T00:14:06;2.60;;;2.10;;
10315;SDS011;5203;48.976;8.306;2023-03-23T00:16:38;2.30;;;2.20;;
10315;SDS011;5203;48.976;8.306;2023-03-23T00:19:09;2.47;;;1.93;;
10315;SDS011;5203;48.976;8.306;2023-03-23T00:21:39;3.53;;;2.13;;
10315;SDS011;5203;48.976;8.306;2023-03-23T00:24:09;2.40;;;2.20;;
10315;SDS011;5203;48.976;8.306;2023-03-23T00:26:39;3.57;;;2.20;;
10315;SDS011;5203;48.976;8.306;2023-03-23T00:29:27;2.47;;;2.23;;
10315;SDS011;5203;48.976;8.306;2023-03-23T00:31:52;2.97;;;2.17;;
10315;SDS011;5203;48.976;8.306;2023-03-23T00:34:19;2.60;;;2.40;;
10315;SDS011;5203;48.976;8.306;2023-03-23T00:36:47;2.33;;;2.17;;
10315;SDS011;5203;48.976;8.306;2023-03-23T00:39:15;2.77;;;2.20;;
10315;SDS011;5203;48.976;8.306;2023-03-23T00:41:45;2.60;;;2.40;;
10315;SDS011;5203;48.976;8.306;2023-03-23T00:44:12;2.50;;;2.30;;
10315;SDS011;5203;48.976;8.306;2023-03-23T00:46:48;2.43;;;2.20;;
10315;SDS011;5203;48.976;8.306;2023-03-23T00:49:18;2.83;;;2.63;;
10315;SDS011;5203;48.976;8.306;2023-03-23T00:51:45;2.47;;;2.27;;
10315;SDS011;5203;48.976;8.306;2023-03-23T00:54:11;2.37;;;2.20;;
10315;SDS011;5203;48.976;8.306;2023-03-23T00:56:37;2.50;;;2.30;;
10315;SDS011;5203;48.976;8.306;2023-03-23T00:59:04;2.23;;;2.13;;
10315;SDS011;5203;48.976;8.306;2023-03-23T01:01:30;2.50;;;2.30;;
10315;SDS011;5203;48.976;8.306;2023-03-23T01:03:55;3.10;;;2.07;;
10315;SDS011;5203;48.976;8.306;2023-03-23T01:06:26;2.50;;;2.30;;
10315;SDS011;5203;48.976;8.306;2023-03-23T01:08:53;2.20;;;2.10;;
10315;SDS011;5203;48.976;8.306;2023-03-23T01:11:19;3.00;;;2.47;;
10315;SDS011;5203;48.976;8.306;2023-03-23T01:13:45;3.03;;;2.53;;
10315;SDS011;5203;48.976;8.306;2023-03-23T01:16:11;2.80;;;2.30;;
10315;SDS011;5203;48.976;8.306;2023-03-23T01:18:37;3.30;;;2.50;;
10315;SDS011;5203;48.976;8.306;2023-03-23T01:21:07;2.70;;;2.50;;
10315;SDS011;5203;48.976;8.306;2023-03-23T01:23:38;2.70;;;2.50;;
10315;SDS011;5203;48.976;8.306;2023-03-23T01:28:35;2.50;;;2.30;;
10315;SDS011;5203;48.976;8.306;2023-03-23T01:31:05;2.80;;;2.20;;
10315;SDS011;5203;48.976;8.306;2023-03-23T01:33:32;2.70;;;2.50;;
10315;SDS011;5203;48.976;8.306;2023-03-23T01:36:02;2.40;;;2.20;;
10315;SDS011;5203;48.976;8.306;2023-03-23T01:38:30;2.63;;;2.30;;
10315;SDS011;5203;48.976;8.306;2023-03-23T01:40:56;2.17;;;2.03;;
10315;SDS011;5203;48.976;8.306;2023-03-23T01:43:21;2.50;;;2.30;;
10315;SDS011;5203;48.976;8.306;2023-03-23T01:45:47;2.70;;;2.50;;
10315;SDS011;5203;48.976;8.306;2023-03-23T01:48:15;2.57;;;2.37;;
10315;SDS011;5203;48.976;8.306;2023-03-23T01:50:44;2.50;;;2.30;;
10315;SDS011;5203;48.976;8.306;2023-03-23T01:53:26;2.47;;;2.27;;
10315;SDS011;5203;48.976;8.306;2023-03-23T01:55:56;2.60;;;2.40;;
10315;SDS011;5203;48.976;8.306;2023-03-23T01:58:25;2.50;;;2.27;;
10315;SDS011;5203;48.976;8.306;2023-03-23T02:00:55;3.07;;;2.77;;
10315;SDS011;5203;48.976;8.306;2023-03-23T02:03:25;2.60;;;2.40;;
10315;SDS011;5203;48.976;8.306;2023-03-23T02:05:53;2.63;;;2.43;;
10315;SDS011;5203;48.976;8.306;2023-03-23T02:08:23;2.90;;;2.50;;
10315;SDS011;5203;48.976;8.306;2023-03-23T02:10:52;2.50;;;2.30;;
10315;SDS011;5203;48.976;8.306;2023-03-23T02:13:18;2.50;;;2.30;;
10315;SDS011;5203;48.976;8.306;2023-03-23T02:28:37;2.63;;;2.43;;
10315;SDS011;5203;48.976;8.306;2023-03-23T02:34:04;2.80;;;2.50;;
10315;SDS011;5203;48.976;8.306;2023-03-23T02:42:08;2.60;;;2.40;;
10315;SDS011;5203;48.976;8.306;2023-03-23T02:44:38;2.60;;;2.40;;
10315;SDS011;5203;48.976;8.306;2023-03-23T02:47:08;2.60;;;2.30;;
10315;SDS011;5203;48.976;8.306;2023-03-23T02:49:39;2.60;;;2.40;;
10315;SDS011;5203;48.976;8.306;2023-03-23T02:52:10;4.23;;;2.60;;
10315;SDS011;5203;48.976;8.306;2023-03-23T02:54:41;2.90;;;2.70;;
10315;SDS011;5203;48.976;8.306;2023-03-23T02:57:09;3.20;;;2.60;;
10315;SDS011;5203;48.976;8.306;2023-03-23T02:59:35;2.67;;;2.47;;
10315;SDS011;5203;48.976;8.306;2023-03-23T03:02:05;2.77;;;2.57;;
10315;SDS011;5203;48.976;8.306;2023-03-23T03:04:38;2.53;;;2.30;;
10315;SDS011;5203;48.976;8.306;2023-03-23T03:09:59;2.70;;;2.50;;
10315;SDS011;5203;48.976;8.306;2023-03-23T03:15:27;4.13;;;2.57;;
10315;SDS011;5203;48.976;8.306;2023-03-23T03:20:30;2.53;;;2.33;;
10315;SDS011;5203;48.976;8.306;2023-03-23T03:22:57;2.90;;;2.70;;
10315;SDS011;5203;48.976;8.306;2023-03-23T03:25:25;3.23;;;2.80;;
10315;SDS011;5203;48.976;8.306;2023-03-23T03:27:52;4.47;;;2.80;;
10315;SDS011;5203;48.976;8.306;2023-03-23T03:30:21;3.30;;;2.50;;
10315;SDS011;5203;48.976;8.306;2023-03-23T03:32:51;3.23;;;2.63;;
10315;SDS011;5203;48.976;8.306;2023-03-23T03:35:23;2.80;;;2.60;;
10315;SDS011;5203;48.976;8.306;2023-03-23T03:37:49;3.00;;;2.70;;
10315;SDS011;5203;48.976;8.306;2023-03-23T03:40:17;2.90;;;2.70;;
10315;SDS011;5203;48.976;8.306;2023-03-23T03:42:45;3.23;;;2.50;;
10315;SDS011;5203;48.976;8.306;2023-03-23T03:45:12;3.10;;;2.80;;
10315;SDS011;5203;48.976;8.306;2023-03-23T03:47:40;2.80;;;2.60;;
10315;SDS011;5203;48.976;8.306;2023-03-23T03:50:06;2.87;;;2.67;;
10315;SDS011;5203;48.976;8.306;2023-03-23T03:52:32;3.33;;;2.60;;
10315;SDS011;5203;48.976;8.306;2023-03-23T03:54:59;2.70;;;2.50;;
10315;SDS011;5203;48.976;8.306;2023-03-23T03:57:24;3.20;;;2.90;;
10315;SDS011;5203;48.976;8.306;2023-03-23T03:59:51;2.83;;;2.50;;
10315;SDS011;5203;48.976;8.306;2023-03-23T04:02:17;2.70;;;2.50;;
10315;SDS011;5203;48.976;8.306;2023-03-23T04:04:45;2.80;;;2.57;;
10315;SDS011;5203;48.976;8.306;2023-03-23T04:07:12;4.07;;;2.73;;
10315;SDS011;5203;48.976;8.306;2023-03-23T04:09:39;2.93;;;2.60;;
10315;SDS011;5203;48.976;8.306;2023-03-23T04:12:05;2.77;;;2.50;;
10315;SDS011;5203;48.976;8.306;2023-03-23T04:14:31;2.87;;;2.67;;
10315;SDS011;5203;48.976;8.306;2023-03-23T04:16:57;4.13;;;2.43;;
10315;SDS011;5203;48.976;8.306;2023-03-23T04:19:24;2.87;;;2.60;;
10315;SDS011;5203;48.976;8.306;2023-03-23T04:21:50;2.73;;;2.37;;
10315;SDS011;5203;48.976;8.306;2023-03-23T04:24:16;3.43;;;3.13;;
10315;SDS011;5203;48.976;8.306;2023-03-23T04:26:46;3.50;;;2.80;;
10315;SDS011;5203;48.976;8.306;2023-03-23T04:29:15;3.93;;;2.73;;
10315;SDS011;5203;48.976;8.306;2023-03-23T04:31:58;2.83;;;2.63;;
10315;SDS011;5203;48.976;8.306;2023-03-23T04:34:26;3.20;;;2.93;;
10315;SDS011;5203;48.976;8.306;2023-03-23T04:36:51;3.30;;;2.83;;
10315;SDS011;5203;48.976;8.306;2023-03-23T04:39:17;2.60;;;2.40;;
10315;SDS011;5203;48.976;8.306;2023-03-23T04:41:44;2.67;;;2.47;;
10315;SDS011;5203;48.976;8.306;2023-03-23T04:44:11;3.50;;;2.80;;
10315;SDS011;5203;48.976;8.306;2023-03-23T04:46:42;3.50;;;3.00;;
10315;SDS011;5203;48.976;8.306;2023-03-23T04:49:10;2.90;;;2.70;;
10315;SDS011;5203;48.976;8.306;2023-03-23T04:51:36;3.27;;;2.73;;
10315;SDS011;5203;48.976;8.306;2023-03-23T04:54:01;3.07;;;2.80;;
10315;SDS011;5203;48.976;8.306;2023-03-23T04:56:27;2.77;;;2.57;;
10315;SDS011;5203;48.976;8.306;2023-03-23T04:58:52;2.70;;;2.50;;
10315;SDS011;5203;48.976;8.306;2023-03-23T05:01:18;2.97;;;2.63;;
10315;SDS011;5203;48.976;8.306;2023-03-23T05:03:44;3.00;;;2.80;;
10315;SDS011;5203;48.976;8.306;2023-03-23T05:06:10;2.90;;;2.57;;
10315;SDS011;5203;48.976;8.306;2023-03-23T05:08:36;5.17;;;3.10;;
10315;SDS011;5203;48.976;8.306;2023-03-23T05:11:05;3.27;;;2.97;;
10315;SDS011;5203;48.976;8.306;2023-03-23T05:13:31;3.40;;;3.10;;
10315;SDS011;5203;48.976;8.306;2023-03-23T05:15:57;3.60;;;3.30;;
10315;SDS011;5203;48.976;8.306;2023-03-23T05:18:27;3.43;;;3.13;;
10315;SDS011;5203;48.976;8.306;2023-03-23T05:20:54;4.07;;;3.67;;
10315;SDS011;5203;48.976;8.306;2023-03-23T05:23:19;4.00;;;3.70;;
10315;SDS011;5203;48.976;8.306;2023-03-23T05:25:54;7.80;;;7.20;;
10315;SDS011;5203;48.976;8.306;2023-03-23T05:28:21;3.20;;;3.00;;
10315;SDS011;5203;48.976;8.306;2023-03-23T05:30:47;3.53;;;3.23;;
10315;SDS011;5203;48.976;8.306;2023-03-23T05:33:13;3.63;;;3.33;;
10315;SDS011;5203;48.976;8.306;2023-03-23T05:35:38;4.03;;;3.63;;
10315;SDS011;5203;48.976;8.306;2023-03-23T05:38:04;4.03;;;3.70;;
10315;SDS011;5203;48.976;8.306;2023-03-23T05:40:30;5.70;;;5.20;;
10315;SDS011;5203;48.976;8.306;2023-03-23T05:42:56;3.93;;;3.40;;
10315;SDS011;5203;48.976;8.306;2023-03-23T05:45:24;3.33;;;3.13;;
10315;SDS011;5203;48.976;8.306;2023-03-23T05:47:51;4.10;;;3.47;;
10315;SDS011;5203;48.976;8.306;2023-03-23T05:50:17;3.63;;;3.40;;
10315;SDS011;5203;48.976;8.306;2023-03-23T05:52:42;3.60;;;3.30;;
10315;SDS011;5203;48.976;8.306;2023-03-23T05:55:08;3.50;;;3.20;;
10315;SDS011;5203;48.976;8.306;2023-03-23T05:57:35;3.23;;;2.93;;
10315;SDS011;5203;48.976;8.306;2023-03-23T06:00:01;5.33;;;3.13;;
10315;SDS011;5203;48.976;8.306;2023-03-23T06:02:36;4.03;;;3.43;;
10315;SDS011;5203;48.976;8.306;2023-03-23T06:05:02;3.60;;;3.30;;
10315;SDS011;5203;48.976;8.306;2023-03-23T06:07:28;5.00;;;3.47;;
10315;SDS011;5203;48.976;8.306;2023-03-23T06:09:54;3.73;;;3.30;;
10315;SDS011;5203;48.976;8.306;2023-03-23T06:12:20;3.43;;;3.07;;
10315;SDS011;5203;48.976;8.306;2023-03-23T06:14:46;4.03;;;3.60;;
10315;SDS011;5203;48.976;8.306;2023-03-23T06:17:13;3.40;;;3.07;;
10315;SDS011;5203;48.976;8.306;2023-03-23T06:19:40;3.83;;;3.53;;
10315;SDS011;5203;48.976;8.306;2023-03-23T06:22:05;5.03;;;3.63;;
10315;SDS011;5203;48.976;8.306;2023-03-23T06:24:31;4.20;;;3.80;;
10315;SDS011;5203;48.976;8.306;2023-03-23T06:26:58;4.50;;;3.83;;
10315;SDS011;5203;48.976;8.306;2023-03-23T06:29:24;7.20;;;4.50;;
10315;SDS011;5203;48.976;8.306;2023-03-23T06:31:54;4.93;;;4.37;;
10315;SDS011;5203;48.976;8.306;2023-03-23T06:34:23;5.30;;;3.90;;
10315;SDS011;5203;48.976;8.306;2023-03-23T06:36:48;4.30;;;3.83;;
10315;SDS011;5203;48.976;8.306;2023-03-23T06:39:14;4.10;;;3.70;;
10315;SDS011;5203;48.976;8.306;2023-03-23T06:41:40;4.53;;;3.90;;
10315;SDS011;5203;48.976;8.306;2023-03-23T06:44:06;4.10;;;3.60;;
10315;SDS011;5203;48.976;8.306;2023-03-23T06:46:33;4.23;;;3.83;;
10315;SDS011;5203;48.976;8.306;2023-03-23T06:48:59;3.90;;;3.60;;
10315;SDS011;5203;48.976;8.306;2023-03-23T06:51:25;4.00;;;3.30;;
10315;SDS011;5203;48.976;8.306;2023-03-23T06:53:50;3.60;;;3.30;;
10315;SDS011;5203;48.976;8.306;2023-03-23T06:56:16;3.67;;;3.30;;
10315;SDS011;5203;48.976;8.306;2023-03-23T06:58:41;3.77;;;3.47;;
10315;SDS011;5203;48.976;8.306;2023-03-23T07:01:08;3.93;;;3.07;;
10315;SDS011;5203;48.976;8.306;2023-03-23T07:03:34;3.47;;;3.17;;
10315;SDS011;5203;48.976;8.306;2023-03-23T07:06:00;3.53;;;2.90;;
10315;SDS011;5203;48.976;8.306;2023-03-23T07:08:26;3.83;;;3.30;;
10315;SDS011;5203;48.976;8.306;2023-03-23T07:10:52;5.40;;;3.13;;
10315;SDS011;5203;48.976;8.306;2023-03-23T07:13:19;3.23;;;2.93;;
10315;SDS011;5203;48.976;8.306;2023-03-23T07:15:45;4.37;;;2.93;;
10315;SDS011;5203;48.976;8.306;2023-03-23T07:18:11;3.40;;;3.10;;
10315;SDS011;5203;48.976;8.306;2023-03-23T07:20:37;3.67;;;3.27;;
10315;SDS011;5203;48.976;8.306;2023-03-23T07:23:03;3.40;;;3.10;;
10315;SDS011;5203;48.976;8.306;2023-03-23T07:25:32;4.33;;;2.90;;
10315;SDS011;5203;48.976;8.306;2023-03-23T07:27:58;3.90;;;3.50;;
10315;SDS011;5203;48.976;8.306;2023-03-23T07:30:27;3.37;;;3.17;;
10315;SDS011;5203;48.976;8.306;2023-03-23T07:32:54;3.50;;;3.20;;
10315;SDS011;5203;48.976;8.306;2023-03-23T07:35:23;3.63;;;3.33;;
10315;SDS011;5203;48.976;8.306;2023-03-23T07:37:50;4.20;;;3.20;;
10315;SDS011;5203;48.976;8.306;2023-03-23T07:40:17;3.73;;;3.30;;
10315;SDS011;5203;48.976;8.306;2023-03-23T07:42:44;3.80;;;3.03;;
10315;SDS011;5203;48.976;8.306;2023-03-23T07:45:14;3.50;;;3.20;;
10315;SDS011;5203;48.976;8.306;2023-03-23T07:47:40;3.50;;;2.90;;
10315;SDS011;5203;48.976;8.306;2023-03-23T07:50:06;5.13;;;2.67;;
10315;SDS011;5203;48.976;8.306;2023-03-23T07:52:33;2.97;;;2.67;;
10315;SDS011;5203;48.976;8.306;2023-03-23T07:54:59;3.80;;;2.70;;
10315;SDS011;5203;48.976;8.306;2023-03-23T07:57:27;3.17;;;2.90;;
10315;SDS011;5203;48.976;8.306;2023-03-23T07:59:53;3.20;;;2.77;;
10315;SDS011;5203;48.976;8.306;2023-03-23T08:02:18;4.00;;;3.20;;
10315;SDS011;5203;48.976;8.306;2023-03-23T08:04:44;3.90;;;3.20;;
10315;SDS011;5203;48.976;8.306;2023-03-23T08:07:10;3.90;;;3.10;;
10315;SDS011;5203;48.976;8.306;2023-03-23T08:09:37;3.13;;;2.83;;
10315;SDS011;5203;48.976;8.306;2023-03-23T08:12:04;3.27;;;2.97;;
10315;SDS011;5203;48.976;8.306;2023-03-23T08:14:29;2.93;;;2.60;;
10315;SDS011;5203;48.976;8.306;2023-03-23T08:16:55;3.50;;;2.70;;
10315;SDS011;5203;48.976;8.306;2023-03-23T08:19:22;2.63;;;2.43;;
10315;SDS011;5203;48.976;8.306;2023-03-23T08:21:49;2.90;;;2.60;;
10315;SDS011;5203;48.976;8.306;2023-03-23T08:24:15;3.53;;;2.70;;
10315;SDS011;5203;48.976;8.306;2023-03-23T08:26:41;2.80;;;2.60;;
10315;SDS011;5203;48.976;8.306;2023-03-23T08:29:07;3.07;;;2.43;;
10315;SDS011;5203;48.976;8.306;2023-03-23T08:31:33;4.23;;;2.73;;
10315;SDS011;5203;48.976;8.306;2023-03-23T08:34:03;2.90;;;2.70;;
10315;SDS011;5203;48.976;8.306;2023-03-23T08:36:33;2.77;;;2.47;;
10315;SDS011;5203;48.976;8.306;2023-03-23T08:38:59;2.97;;;2.77;;
10315;SDS011;5203;48.976;8.306;2023-03-23T08:41:25;3.17;;;2.90;;
10315;SDS011;5203;48.976;8.306;2023-03-23T08:43:51;2.80;;;2.60;;
10315;SDS011;5203;48.976;8.306;2023-03-23T08:46:17;2.80;;;2.53;;
10315;SDS011;5203;48.976;8.306;2023-03-23T08:48:44;2.90;;;2.70;;
10315;SDS011;5203;48.976;8.306;2023-03-23T08:51:10;3.60;;;3.30;;
10315;SDS011;5203;48.976;8.306;2023-03-23T08:53:37;3.97;;;3.17;;
10315;SDS011;5203;48.976;8.306;2023-03-23T08:56:07;3.60;;;3.30;;
10315;SDS011;5203;48.976;8.306;2023-03-23T08:58:35;4.43;;;2.87;;
10315;SDS011;5203;48.976;8.306;2023-03-23T09:01:04;3.53;;;2.80;;
10315;SDS011;5203;48.976;8.306;2023-03-23T09:03:35;3.03;;;2.80;;
10315;SDS011;5203;48.976;8.306;2023-03-23T09:06:02;2.90;;;2.70;;
10315;SDS011;5203;48.976;8.306;2023-03-23T09:08:30;2.80;;;2.60;;
10315;SDS011;5203;48.976;8.306;2023-03-23T09:11:00;3.00;;;2.80;;
10315;SDS011;5203;48.976;8.306;2023-03-23T09:13:27;3.27;;;2.97;;
10315;SDS011;5203;48.976;8.306;2023-03-23T09:15:53;2.53;;;2.33;;
10315;SDS011;5203;48.976;8.306;2023-03-23T09:18:19;2.73;;;2.50;;
10315;SDS011;5203;48.976;8.306;2023-03-23T09:20:46;3.80;;;2.30;;
10315;SDS011;5203;48.976;8.306;2023-03-23T09:23:14;3.53;;;2.37;;
10315;SDS011;5203;48.976;8.306;2023-03-23T09:25:49;2.73;;;2.50;;
10315;SDS011;5203;48.976;8.306;2023-03-23T09:28:16;2.60;;;2.40;;
10315;SDS011;5203;48.976;8.306;2023-03-23T09:30:42;2.60;;;2.40;;
10315;SDS011;5203;48.976;8.306;2023-03-23T09:33:10;2.73;;;2.40;;
10315;SDS011;5203;48.976;8.306;2023-03-23T09:35:36;2.27;;;2.10;;
10315;SDS011;5203;48.976;8.306;2023-03-23T09:38:03;2.70;;;2.50;;
10315;SDS011;5203;48.976;8.306;2023-03-23T09:43:08;4.43;;;2.57;;
10315;SDS011;5203;48.976;8.306;2023-03-23T09:45:43;2.40;;;2.20;;
10315;SDS011;5203;48.976;8.306;2023-03-23T09:48:38;2.80;;;2.60;;
10315;SDS011;5203;48.976;8.306;2023-03-23T09:51:22;4.23;;;2.50;;
10315;SDS011;5203;48.976;8.306;2023-03-23T09:53:58;2.83;;;2.40;;
10315;SDS011;5203;48.976;8.306;2023-03-23T09:56:31;3.00;;;2.10;;
10315;SDS011;5203;48.976;8.306;2023-03-23T10:01:44;2.27;;;2.07;;
10315;SDS011;5203;48.976;8.306;2023-03-23T10:07:17;2.13;;;1.93;;
10315;SDS011;5203;48.976;8.306;2023-03-23T10:10:02;2.33;;;2.13;;
10315;SDS011;5203;48.976;8.306;2023-03-23T10:15:21;2.23;;;2.07;;
10315;SDS011;5203;48.976;8.306;2023-03-23T10:20:35;2.57;;;2.00;;
10315;SDS011;5203;48.976;8.306;2023-03-23T10:28:42;3.70;;;2.50;;
10315;SDS011;5203;48.976;8.306;2023-03-23T10:34:02;2.50;;;2.30;;
10315;SDS011;5203;48.976;8.306;2023-03-23T10:36:42;2.20;;;2.10;;
10315;SDS011;5203;48.976;8.306;2023-03-23T10:39:21;2.50;;;2.30;;
10315;SDS011;5203;48.976;8.306;2023-03-23T10:41:50;2.20;;;2.10;;
10315;SDS011;5203;48.976;8.306;2023-03-23T10:44:21;3.40;;;2.70;;
10315;SDS011;5203;48.976;8.306;2023-03-23T10:46:57;2.50;;;2.30;;
10315;SDS011;5203;48.976;8.306;2023-03-23T10:49:41;2.47;;;2.23;;
10315;SDS011;5203;48.976;8.306;2023-03-23T10:55:02;2.77;;;2.57;;
10315;SDS011;5203;48.976;8.306;2023-03-23T10:57:58;3.17;;;2.30;;
10315;SDS011;5203;48.976;8.306;2023-03-23T11:00:29;2.70;;;2.50;;
10315;SDS011;5203;48.976;8.306;2023-03-23T11:05:25;2.60;;;2.40;;
10315;SDS011;5203;48.976;8.306;2023-03-23T11:07:57;2.73;;;2.53;;
10315;SDS011;5203;48.976;8.306;2023-03-23T11:10:25;2.90;;;2.43;;
10315;SDS011;5203;48.976;8.306;2023-03-23T11:13:10;2.70;;;2.50;;
10315;SDS011;5203;48.976;8.306;2023-03-23T11:15:39;2.83;;;2.63;;
10315;SDS011;5203;48.976;8.306;2023-03-23T11:18:09;3.33;;;3.03;;
10315;SDS011;5203;48.976;8.306;2023-03-23T11:20:37;2.80;;;2.60;;
10315;SDS011;5203;48.976;8.306;2023-03-23T11:23:22;2.83;;;2.60;;
10315;SDS011;5203;48.976;8.306;2023-03-23T11:28:30;3.00;;;2.60;;
10315;SDS011;5203;48.976;8.306;2023-03-23T11:30:59;3.37;;;3.10;;
10315;SDS011;5203;48.976;8.306;2023-03-23T11:33:34;2.80;;;2.60;;
10315;SDS011;5203;48.976;8.306;2023-03-23T11:36:07;4.27;;;3.30;;
10315;SDS011;5203;48.976;8.306;2023-03-23T11:38:33;3.07;;;2.87;;
10315;SDS011;5203;48.976;8.306;2023-03-23T11:41:00;2.67;;;2.47;;
10315;SDS011;5203;48.976;8.306;2023-03-23T11:43:25;2.60;;;2.30;;
10315;SDS011;5203;48.976;8.306;2023-03-23T11:51:29;2.30;;;2.10;;
10315;SDS011;5203;48.976;8.306;2023-03-23T11:54:00;2.70;;;2.50;;
10315;SDS011;5203;48.976;8.306;2023-03-23T11:56:37;2.57;;;2.37;;
10315;SDS011;5203;48.976;8.306;2023-03-23T11:59:13;2.33;;;2.17;;
10315;SDS011;5203;48.976;8.306;2023-03-23T12:07:23;3.73;;;2.20;;
10315;SDS011;5203;48.976;8.306;2023-03-23T12:12:40;2.30;;;2.20;;
10315;SDS011;5203;48.976;8.306;2023-03-23T12:20:59;2.30;;;2.20;;
10315;SDS011;5203;48.976;8.306;2023-03-23T12:27:21;2.23;;;2.07;;
10315;SDS011;5203;48.976;8.306;2023-03-23T12:34:59;2.23;;;2.07;;
10315;SDS011;5203;48.976;8.306;2023-03-23T12:43:02;2.50;;;2.30;;
10315;SDS011;5203;48.976;8.306;2023-03-23T12:45:51;3.33;;;2.03;;
10315;SDS011;5203;48.976;8.306;2023-03-23T12:48:41;2.67;;;2.47;;
10315;SDS011;5203;48.976;8.306;2023-03-23T12:54:01;3.07;;;2.87;;
10315;SDS011;5203;48.976;8.306;2023-03-23T12:56:53;2.50;;;2.30;;
10315;SDS011;5203;48.976;8.306;2023-03-23T13:02:25;2.43;;;2.27;;
10315;SDS011;5203;48.976;8.306;2023-03-23T13:05:24;5.30;;;4.90;;
10315;SDS011;5203;48.976;8.306;2023-03-23T13:10:32;2.80;;;2.37;;
10315;SDS011;5203;48.976;8.306;2023-03-23T13:13:02;2.67;;;2.47;;
10315;SDS011;5203;48.976;8.306;2023-03-23T13:15:43;2.20;;;2.10;;
10315;SDS011;5203;48.976;8.306;2023-03-23T13:18:37;2.77;;;2.57;;
10315;SDS011;5203;48.976;8.306;2023-03-23T13:24:32;2.37;;;2.17;;
10315;SDS011;5203;48.976;8.306;2023-03-23T13:27:00;2.63;;;2.50;;
10315;SDS011;5203;48.976;8.306;2023-03-23T13:29:26;2.60;;;2.40;;
10315;SDS011;5203;48.976;8.306;2023-03-23T13:32:04;3.43;;;2.63;;
10315;SDS011;5203;48.976;8.306;2023-03-23T13:34:40;2.70;;;2.50;;
10315;SDS011;5203;48.976;8.306;2023-03-23T13:37:10;3.13;;;2.50;;
10315;SDS011;5203;48.976;8.306;2023-03-23T13:39:52;3.03;;;2.67;;
10315;SDS011;5203;48.976;8.306;2023-03-23T13:42:22;3.93;;;3.00;;
10315;SDS011;5203;48.976;8.306;2023-03-23T14:05:35;3.20;;;2.90;;
10315;SDS011;5203;48.976;8.306;2023-03-23T14:08:09;4.30;;;3.03;;
10315;SDS011;5203;48.976;8.306;2023-03-23T14:13:19;3.90;;;3.50;;
10315;SDS011;5203;48.976;8.306;2023-03-23T14:15:54;3.57;;;2.97;;
10315;SDS011;5203;48.976;8.306;2023-03-23T14:18:30;3.27;;;2.90;;
10315;SDS011;5203;48.976;8.306;2023-03-23T14:21:00;3.83;;;3.13;;
10315;SDS011;5203;48.976;8.306;2023-03-23T14:23:27;3.20;;;3.00;;
10315;SDS011;5203;48.976;8.306;2023-03-23T14:25:56;3.50;;;3.20;;
10315;SDS011;5203;48.976;8.306;2023-03-23T14:28:31;3.00;;;2.80;;
10315;SDS011;5203;48.976;8.306;2023-03-23T14:30:57;3.33;;;3.03;;
10315;SDS011;5203;48.976;8.306;2023-03-23T14:33:24;3.53;;;3.23;;
10315;SDS011;5203;48.976;8.306;2023-03-23T14:35:52;4.00;;;3.30;;
10315;SDS011;5203;48.976;8.306;2023-03-23T14:38:19;3.67;;;3.37;;
10315;SDS011;5203;48.976;8.306;2023-03-23T14:40:49;3.20;;;3.00;;
10315;SDS011;5203;48.976;8.306;2023-03-23T14:43:17;3.63;;;3.20;;
10315;SDS011;5203;48.976;8.306;2023-03-23T14:45:47;3.83;;;3.43;;
10315;SDS011;5203;48.976;8.306;2023-03-23T14:48:17;3.27;;;2.97;;
10315;SDS011;5203;48.976;8.306;2023-03-23T14:50:49;3.20;;;2.90;;
10315;SDS011;5203;48.976;8.306;2023-03-23T14:53:23;3.53;;;3.20;;
10315;SDS011;5203;48.976;8.306;2023-03-23T14:56:15;3.37;;;3.17;;
10315;SDS011;5203;48.976;8.306;2023-03-23T14:58:48;3.90;;;3.60;;
10315;SDS011;5203;48.976;8.306;2023-03-23T15:01:19;3.37;;;3.13;;
10315;SDS011;5203;48.976;8.306;2023-03-23T15:04:01;3.23;;;3.03;;
10315;SDS011;5203;48.976;8.306;2023-03-23T15:06:36;3.57;;;3.27;;
10315;SDS011;5203;48.976;8.306;2023-03-23T15:09:05;3.30;;;3.10;;
10315;SDS011;5203;48.976;8.306;2023-03-23T15:11:35;3.78;;;3.58;;
10315;SDS011;5203;48.976;8.306;2023-03-23T15:14:24;4.03;;;3.72;;
10315;SDS011;5203;48.976;8.306;2023-03-23T15:16:53;5.03;;;4.55;;
10315;SDS011;5203;48.976;8.306;2023-03-23T15:19:23;6.50;;;5.90;;
10315;SDS011;5203;48.976;8.306;2023-03-23T15:21:53;4.97;;;4.57;;
10315;SDS011;5203;48.976;8.306;2023-03-23T15:24:25;4.40;;;4.00;;
10315;SDS011;5203;48.976;8.306;2023-03-23T15:27:02;8.43;;;7.60;;
10315;SDS011;5203;48.976;8.306;2023-03-23T15:32:38;7.38;;;5.35;;
10315;SDS011;5203;48.976;8.306;2023-03-23T15:35:13;5.78;;;4.30;;
10315;SDS011;5203;48.976;8.306;2023-03-23T15:37:45;10.23;;;4.00;;
10315;SDS011;5203;48.976;8.306;2023-03-23T15:40:17;3.83;;;3.42;;
10315;SDS011;5203;48.976;8.306;2023-03-23T15:42:45;3.72;;;3.42;;
10315;SDS011;5203;48.976;8.306;2023-03-23T15:52:38;3.88;;;3.30;;
10315;SDS011;5203;48.976;8.306;2023-03-23T15:55:15;3.25;;;2.95;;
10315;SDS011;5203;48.976;8.306;2023-03-23T15:57:51;3.20;;;3.00;;
10315;SDS011;5203;48.976;8.306;2023-03-23T16:00:19;4.90;;;4.50;;
10315;SDS011;5203;48.976;8.306;2023-03-23T16:02:46;8.77;;;8.07;;
10315;SDS011;5203;48.976;8.306;2023-03-23T16:05:16;4.70;;;4.30;;
10315;SDS011;5203;48.976;8.306;2023-03-23T16:07:42;7.15;;;4.15;;
10315;SDS011;5203;48.976;8.306;2023-03-23T16:10:13;4.90;;;3.90;;
10315;SDS011;5203;48.976;8.306;2023-03-23T16:12:41;4.10;;;3.75;;
10315;SDS011;5203;48.976;8.306;2023-03-23T16:15:07;4.90;;;4.50;;
10315;SDS011;5203;48.976;8.306;2023-03-23T16:17:33;4.07;;;3.78;;
10315;SDS011;5203;48.976;8.306;2023-03-23T16:20:02;4.15;;;3.75;;
10315;SDS011;5203;48.976;8.306;2023-03-23T16:22:44;3.83;;;3.40;;
10315;SDS011;5203;48.976;8.306;2023-03-23T16:25:10;3.60;;;3.40;;
10315;SDS011;5203;48.976;8.306;2023-03-23T16:27:37;4.22;;;3.83;;
10315;SDS011;5203;48.976;8.306;2023-03-23T16:30:14;4.40;;;4.00;;
10315;SDS011;5203;48.976;8.306;2023-03-23T16:32:42;7.03;;;6.32;;
10315;SDS011;5203;48.976;8.306;2023-03-23T16:35:08;8.68;;;7.72;;
10315;SDS011;5203;48.976;8.306;2023-03-23T16:37:34;7.97;;;7.28;;
10315;SDS011;5203;48.976;8.306;2023-03-23T16:40:01;9.55;;;8.75;;
10315;SDS011;5203;48.976;8.306;2023-03-23T16:42:28;6.68;;;6.07;;
10315;SDS011;5203;48.976;8.306;2023-03-23T16:44:54;7.82;;;7.22;;
10315;SDS011;5203;48.976;8.306;2023-03-23T16:47:19;6.70;;;6.30;;
10315;SDS011;5203;48.976;8.306;2023-03-23T16:49:49;6.85;;;6.32;;
10315;SDS011;5203;48.976;8.306;2023-03-23T16:52:16;6.80;;;6.30;;
10315;SDS011;5203;48.976;8.306;2023-03-23T16:54:42;6.70;;;6.03;;
10315;SDS011;5203;48.976;8.306;2023-03-23T16:57:08;5.00;;;4.60;;
10315;SDS011;5203;48.976;8.306;2023-03-23T16:59:34;5.20;;;4.80;;
10315;SDS011;5203;48.976;8.306;2023-03-23T17:01:59;6.60;;;4.68;;
10315;SDS011;5203;48.976;8.306;2023-03-23T17:04:28;5.25;;;4.20;;
10315;SDS011;5203;48.976;8.306;2023-03-23T17:06:54;4.90;;;4.50;;
10315;SDS011;5203;48.976;8.306;2023-03-23T17:09:22;7.43;;;6.82;;
10315;SDS011;5203;48.976;8.306;2023-03-23T17:11:49;5.50;;;5.07;;
10315;SDS011;5203;48.976;8.306;2023-03-23T17:14:15;5.78;;;5.15;;
10315;SDS011;5203;48.976;8.306;2023-03-23T17:16:41;6.30;;;5.53;;
10315;SDS011;5203;48.976;8.306;2023-03-23T17:19:06;5.30;;;5.00;;
10315;SDS011;5203;48.976;8.306;2023-03-23T17:21:32;7.43;;;6.80;;
10315;SDS011;5203;48.976;8.306;2023-03-23T17:23:57;7.07;;;6.18;;
10315;SDS011;5203;48.976;8.306;2023-03-23T17:26:23;6.03;;;5.22;;
10315;SDS011;5203;48.976;8.306;2023-03-23T17:28:49;5.50;;;4.85;;
10315;SDS011;5203;48.976;8.306;2023-03-23T17:31:14;6.07;;;5.25;;
10315;SDS011;5203;48.976;8.306;2023-03-23T17:33:40;5.25;;;4.70;;
10315;SDS011;5203;48.976;8.306;2023-03-23T17:36:06;5.57;;;5.05;;